createdAt,value
2023-02-19T00:02:15.571Z,22.83
2023-02-19T00:04:42.506Z,20.98
2023-02-19T00:07:09.370Z,19.98
2023-02-19T00:09:36.251Z,19.27
2023-02-19T00:12:03.152Z,19.23
2023-02-19T00:14:29.971Z,19.00
2023-02-19T00:16:56.850Z,21.88
2023-02-19T00:19:23.757Z,22.35
2023-02-19T00:21:53.782Z,31.80
2023-02-19T00:24:20.931Z,29.37
2023-02-19T00:26:48.227Z,27.67
2023-02-19T00:29:19.830Z,24.27
2023-02-19T00:31:46.879Z,25.77
2023-02-19T00:34:14.126Z,28.92
2023-02-19T00:36:41.456Z,29.83
2023-02-19T00:39:08.546Z,32.25
2023-02-19T00:41:35.364Z,30.92
2023-02-19T00:44:04.118Z,30.90
2023-02-19T00:46:44.692Z,35.00
2023-02-19T00:49:22.069Z,32.58
2023-02-19T00:51:49.639Z,32.30
2023-02-19T00:54:16.879Z,36.15
2023-02-19T00:56:43.748Z,33.75
2023-02-19T00:59:10.574Z,36.35
2023-02-19T01:01:37.500Z,38.58
2023-02-19T01:04:06.565Z,35.17
2023-02-19T01:06:34.713Z,34.97
2023-02-19T01:09:01.571Z,37.83
2023-02-19T01:11:28.505Z,35.55
2023-02-19T01:13:59.251Z,35.90
2023-02-19T01:16:27.523Z,35.78
2023-02-19T01:18:54.465Z,38.25
2023-02-19T01:21:23.190Z,32.95
2023-02-19T01:23:50.461Z,35.72
2023-02-19T01:26:22.267Z,33.17
2023-02-19T01:28:49.090Z,34.17
2023-02-19T01:31:21.410Z,31.00
2023-02-19T01:33:52.929Z,33.65
2023-02-19T01:36:19.807Z,32.30
2023-02-19T01:38:46.679Z,32.45
2023-02-19T01:41:16.115Z,32.97
2023-02-19T01:44:04.601Z,30.00
2023-02-19T01:46:35.245Z,27.45
2023-02-19T01:49:13.909Z,25.30
2023-02-19T01:51:58.516Z,25.23
2023-02-19T01:54:26.480Z,24.98
2023-02-19T01:56:53.258Z,21.13
2023-02-19T01:59:20.079Z,20.65
2023-02-19T02:01:46.951Z,22.55
2023-02-19T02:04:13.849Z,20.13
2023-02-19T02:06:55.499Z,14.93
2023-02-19T02:09:42.600Z,16.52
2023-02-19T02:12:09.606Z,20.70
2023-02-19T02:14:37.809Z,17.30
2023-02-19T02:17:13.704Z,20.27
2023-02-19T02:20:10.859Z,16.17
2023-02-19T02:22:44.634Z,15.43
2023-02-19T02:25:32.724Z,15.00
2023-02-19T02:28:41.289Z,14.73
2023-02-19T02:31:33.787Z,13.82
2023-02-19T02:34:03.746Z,12.40
2023-02-19T02:36:37.641Z,13.32
2023-02-19T02:39:07.289Z,12.68
2023-02-19T02:41:34.215Z,12.73
2023-02-19T02:44:00.971Z,13.57
2023-02-19T02:46:34.205Z,13.88
2023-02-19T02:49:09.458Z,12.25
2023-02-19T02:51:36.815Z,14.93
2023-02-19T02:54:42.822Z,13.43
2023-02-19T02:57:09.693Z,13.40
2023-02-19T02:59:37.726Z,13.13
2023-02-19T03:02:12.401Z,14.02
2023-02-19T03:05:12.857Z,13.80
2023-02-19T03:07:41.708Z,13.77
2023-02-19T03:10:10.399Z,14.73
2023-02-19T03:12:55.965Z,13.18
2023-02-19T03:15:41.293Z,12.18
2023-02-19T03:18:27.160Z,11.75
2023-02-19T03:20:56.305Z,11.45
2023-02-19T03:23:43.346Z,10.63
2023-02-19T03:26:11.261Z,10.18
2023-02-19T03:28:57.407Z,11.02
2023-02-19T03:31:24.708Z,11.52
2023-02-19T03:33:56.439Z,10.73
2023-02-19T03:36:25.884Z,13.35
2023-02-19T03:39:06.033Z,12.73
2023-02-19T03:41:40.561Z,11.33
2023-02-19T03:44:11.371Z,10.82
2023-02-19T03:46:40.959Z,13.43
2023-02-19T03:49:30.409Z,13.27
2023-02-19T03:52:15.349Z,14.50
2023-02-19T03:54:53.140Z,13.30
2023-02-19T03:57:50.203Z,12.77
2023-02-19T04:00:41.752Z,13.25
2023-02-19T04:03:11.341Z,11.00
2023-02-19T04:05:41.422Z,11.20
2023-02-19T04:08:16.487Z,13.00
2023-02-19T04:10:44.245Z,12.63
2023-02-19T04:13:16.062Z,11.02
2023-02-19T04:15:43.196Z,9.80
2023-02-19T04:18:31.332Z,9.77
2023-02-19T04:20:58.133Z,10.35
2023-02-19T04:23:25.886Z,9.50
2023-02-19T04:25:55.129Z,10.82
2023-02-19T04:28:21.926Z,9.98
2023-02-19T04:30:48.826Z,9.93
2023-02-19T04:33:15.624Z,12.63
2023-02-19T04:35:42.458Z,11.18
2023-02-19T04:38:09.271Z,10.43
2023-02-19T04:40:36.075Z,11.93
2023-02-19T04:43:02.899Z,11.85
2023-02-19T04:45:29.714Z,12.75
2023-02-19T04:47:58.565Z,12.57
2023-02-19T04:50:25.692Z,14.10
2023-02-19T04:52:52.525Z,11.40
2023-02-19T04:55:19.352Z,11.35
2023-02-19T04:57:46.155Z,11.03
2023-02-19T05:00:13.295Z,11.20
2023-02-19T05:02:40.121Z,10.80
2023-02-19T05:05:07.078Z,11.55
2023-02-19T05:07:34.157Z,10.45
2023-02-19T05:10:01.000Z,10.37
2023-02-19T05:12:27.779Z,9.50
2023-02-19T05:14:54.656Z,9.25
2023-02-19T05:17:21.490Z,8.63
2023-02-19T05:19:48.316Z,9.48
2023-02-19T05:22:15.173Z,8.70
2023-02-19T05:24:42.071Z,10.30
2023-02-19T05:27:08.882Z,7.83
2023-02-19T05:29:35.680Z,12.77
2023-02-19T05:32:02.592Z,10.23
2023-02-19T05:34:29.565Z,10.32
2023-02-19T05:36:56.391Z,10.23
2023-02-19T05:39:23.203Z,9.67
2023-02-19T05:41:50.039Z,10.63
2023-02-19T05:44:16.840Z,10.27
2023-02-19T05:46:43.753Z,10.97
2023-02-19T05:49:10.597Z,11.68
2023-02-19T05:51:37.558Z,9.60
2023-02-19T05:54:04.485Z,9.47
2023-02-19T05:56:41.133Z,10.20
2023-02-19T05:59:17.891Z,9.30
2023-02-19T06:01:44.751Z,9.63
2023-02-19T06:04:11.764Z,10.93
2023-02-19T06:06:38.818Z,10.70
2023-02-19T06:09:06.122Z,12.30
2023-02-19T06:11:33.165Z,12.55
2023-02-19T06:14:00.117Z,13.40
2023-02-19T06:16:27.164Z,13.27
2023-02-19T06:18:53.973Z,12.38
2023-02-19T06:21:20.819Z,17.33
2023-02-19T06:23:47.680Z,18.38
2023-02-19T06:26:19.764Z,18.30
2023-02-19T06:28:47.670Z,20.40
2023-02-19T06:31:14.917Z,19.55
2023-02-19T06:33:41.947Z,31.08
2023-02-19T06:36:12.146Z,26.17
2023-02-19T06:38:39.030Z,24.55
2023-02-19T06:41:06.194Z,28.33
2023-02-19T06:43:33.620Z,34.35
2023-02-19T06:46:01.283Z,27.15
2023-02-19T06:48:28.688Z,22.75
2023-02-19T06:50:55.584Z,21.42
2023-02-19T06:53:22.513Z,22.67
2023-02-19T06:56:07.964Z,26.95
2023-02-19T06:58:34.935Z,27.20
2023-02-19T07:01:01.866Z,27.88
2023-02-19T07:03:28.736Z,29.05
2023-02-19T07:05:55.543Z,26.83
2023-02-19T07:08:22.401Z,26.20
2023-02-19T07:10:56.598Z,23.95
2023-02-19T07:13:24.486Z,22.77
2023-02-19T07:15:52.287Z,22.08
2023-02-19T07:18:19.307Z,23.20
2023-02-19T07:20:46.279Z,24.85
2023-02-19T07:23:13.112Z,24.75
2023-02-19T07:25:40.086Z,26.10
2023-02-19T07:28:07.160Z,26.23
2023-02-19T07:30:34.099Z,25.50
2023-02-19T07:33:01.056Z,24.55
2023-02-19T07:35:27.884Z,20.00
2023-02-19T07:37:54.807Z,19.52
2023-02-19T07:40:21.623Z,19.30
2023-02-19T07:42:48.406Z,20.23
2023-02-19T07:45:15.662Z,21.45
2023-02-19T07:47:42.638Z,48.78
2023-02-19T07:50:09.474Z,34.47
2023-02-19T07:52:36.252Z,21.33
2023-02-19T07:55:03.125Z,19.23
2023-02-19T07:57:31.241Z,17.40
2023-02-19T07:59:59.020Z,17.55
2023-02-19T08:02:44.342Z,17.30
2023-02-19T08:05:11.144Z,16.90
2023-02-19T08:07:38.317Z,16.95
2023-02-19T08:10:24.119Z,26.77
2023-02-19T08:13:18.823Z,26.60
2023-02-19T08:15:46.276Z,20.77
2023-02-19T08:18:14.133Z,20.70
2023-02-19T08:20:41.091Z,23.65
2023-02-19T08:23:08.317Z,28.92
2023-02-19T08:25:35.364Z,23.08
2023-02-19T08:28:02.151Z,25.75
2023-02-19T08:30:29.900Z,20.55
2023-02-19T08:32:57.599Z,27.13
2023-02-19T08:35:24.582Z,25.40
2023-02-19T08:37:51.453Z,24.58
2023-02-19T08:40:18.432Z,18.02
2023-02-19T08:42:45.247Z,28.30
2023-02-19T08:45:12.114Z,19.48
2023-02-19T08:47:39.857Z,19.27
2023-02-19T08:50:07.441Z,18.52
2023-02-19T08:52:34.372Z,19.52
2023-02-19T08:55:02.124Z,21.02
2023-02-19T08:57:29.303Z,18.25
2023-02-19T08:59:57.242Z,17.42
2023-02-19T09:02:24.731Z,18.38
2023-02-19T09:04:51.521Z,20.52
2023-02-19T09:07:18.717Z,22.33
2023-02-19T09:09:45.596Z,17.92
2023-02-19T09:12:12.547Z,17.73
2023-02-19T09:14:39.373Z,13.35
2023-02-19T09:17:06.966Z,16.02
2023-02-19T09:19:33.866Z,12.02
2023-02-19T09:22:00.820Z,7.45
2023-02-19T09:24:27.646Z,5.80
2023-02-19T09:26:54.775Z,4.97
2023-02-19T09:29:22.733Z,4.65
2023-02-19T09:31:49.566Z,4.20
2023-02-19T09:34:16.518Z,5.00
2023-02-19T09:36:43.330Z,3.75
2023-02-19T09:39:12.555Z,4.30
2023-02-19T09:41:59.213Z,11.93
2023-02-19T09:44:36.571Z,6.53
2023-02-19T09:47:06.144Z,5.97
2023-02-19T09:49:34.673Z,3.20
2023-02-19T09:52:12.947Z,3.75
2023-02-19T09:54:39.782Z,8.77
2023-02-19T09:57:06.546Z,4.15
2023-02-19T09:59:48.995Z,6.00
2023-02-19T10:02:17.367Z,5.85
2023-02-19T10:04:45.063Z,4.90
2023-02-19T10:07:15.909Z,14.52
2023-02-19T10:10:04.610Z,9.90
2023-02-19T10:12:32.291Z,4.35
2023-02-19T10:15:09.601Z,4.95
2023-02-19T10:17:37.424Z,6.15
2023-02-19T10:20:04.717Z,7.85
2023-02-19T10:22:35.726Z,6.10
2023-02-19T10:25:02.602Z,6.30
2023-02-19T10:27:32.198Z,17.50
2023-02-19T10:29:59.347Z,10.00
2023-02-19T10:32:26.686Z,11.50
2023-02-19T10:35:13.378Z,12.20
2023-02-19T10:37:47.552Z,13.55
2023-02-19T10:40:36.359Z,8.25
2023-02-19T10:43:04.133Z,6.40
2023-02-19T10:45:34.686Z,7.63
2023-02-19T10:48:01.601Z,8.23
2023-02-19T10:50:31.529Z,7.50
2023-02-19T10:52:59.464Z,7.55
2023-02-19T10:55:37.718Z,13.32
2023-02-19T10:58:26.363Z,11.20
2023-02-19T11:01:12.932Z,12.48
2023-02-19T11:03:39.839Z,8.98
2023-02-19T11:06:10.834Z,14.60
2023-02-19T11:08:51.160Z,8.82
2023-02-19T11:11:30.202Z,9.63
2023-02-19T11:13:57.679Z,11.32
2023-02-19T11:16:25.139Z,13.80
2023-02-19T11:18:57.288Z,11.32
2023-02-19T11:21:32.948Z,11.85
2023-02-19T11:24:06.017Z,12.48
2023-02-19T11:26:35.152Z,13.00
2023-02-19T11:29:11.940Z,14.38
2023-02-19T11:31:38.903Z,10.65
2023-02-19T11:34:14.943Z,11.50
2023-02-19T11:36:42.282Z,11.43
2023-02-19T11:39:18.066Z,10.98
2023-02-19T11:42:03.204Z,10.98
2023-02-19T11:44:48.691Z,11.68
2023-02-19T11:47:36.425Z,14.00
2023-02-19T11:50:24.132Z,9.38
2023-02-19T11:53:11.125Z,8.55
2023-02-19T11:56:01.917Z,14.05
2023-02-19T11:58:37.638Z,12.75
2023-02-19T12:01:36.566Z,12.25
2023-02-19T12:04:12.291Z,15.30
2023-02-19T12:06:57.076Z,9.60
2023-02-19T12:09:54.282Z,10.75
2023-02-19T12:12:30.185Z,14.43
2023-02-19T12:15:07.870Z,17.15
2023-02-19T12:17:34.678Z,14.40
2023-02-19T12:20:25.576Z,11.18
2023-02-19T12:23:01.288Z,13.48
2023-02-19T12:26:08.201Z,10.25
2023-02-19T12:28:35.063Z,10.98
2023-02-19T12:31:22.790Z,12.27
2023-02-19T12:33:57.149Z,11.73
2023-02-19T12:36:27.051Z,9.75
2023-02-19T12:39:02.952Z,14.95
2023-02-19T12:41:41.842Z,11.15
2023-02-19T12:44:19.306Z,14.38
2023-02-19T12:46:55.650Z,9.80
2023-02-19T12:49:25.431Z,13.65
2023-02-19T12:52:03.324Z,12.83
2023-02-19T12:54:44.479Z,11.57
2023-02-19T12:57:20.120Z,13.73
2023-02-19T12:59:48.794Z,10.48
2023-02-19T13:02:37.901Z,11.05
2023-02-19T13:05:52.878Z,12.65
2023-02-19T13:08:29.355Z,11.75
2023-02-19T13:10:59.375Z,8.88
2023-02-19T13:13:28.684Z,9.23
2023-02-19T13:16:09.821Z,7.63
2023-02-19T13:18:41.266Z,7.45
2023-02-19T13:21:08.107Z,6.30
2023-02-19T13:23:58.285Z,6.82
2023-02-19T13:26:30.867Z,7.45
2023-02-19T13:29:03.906Z,4.53
2023-02-19T13:31:48.958Z,5.80
2023-02-19T13:34:18.912Z,6.00
2023-02-19T13:36:45.705Z,5.55
2023-02-19T13:41:49.212Z,5.55
2023-02-19T13:44:20.364Z,7.57
2023-02-19T13:46:47.850Z,14.88
2023-02-19T13:49:31.703Z,5.65
2023-02-19T13:51:59.530Z,6.25
2023-02-19T13:54:30.992Z,7.82
2023-02-19T13:57:22.746Z,8.20
2023-02-19T13:59:53.615Z,11.02
2023-02-19T14:02:23.558Z,7.35
2023-02-19T14:05:00.305Z,10.90
2023-02-19T14:07:27.091Z,6.85
2023-02-19T14:09:54.457Z,9.55
2023-02-19T14:12:22.448Z,7.20
2023-02-19T14:14:52.615Z,6.85
2023-02-19T14:17:28.206Z,6.07
2023-02-19T14:20:16.785Z,8.00
2023-02-19T14:22:52.831Z,8.23
2023-02-19T14:25:29.421Z,7.25
2023-02-19T14:28:17.160Z,6.43
2023-02-19T14:31:11.955Z,10.00
2023-02-19T14:33:40.333Z,7.60
2023-02-19T14:36:33.437Z,6.28
2023-02-19T14:39:01.144Z,6.53
2023-02-19T14:41:28.765Z,6.75
2023-02-19T14:43:56.476Z,7.05
2023-02-19T14:46:40.290Z,7.25
2023-02-19T14:49:15.629Z,9.55
2023-02-19T14:51:44.269Z,7.20
2023-02-19T14:54:22.070Z,7.00
2023-02-19T14:56:50.215Z,5.70
2023-02-19T14:59:20.186Z,6.57
2023-02-19T15:01:49.631Z,7.23
2023-02-19T15:04:24.393Z,7.28
2023-02-19T15:06:53.116Z,6.60
2023-02-19T15:09:20.127Z,7.80
2023-02-19T15:11:46.928Z,6.78
2023-02-19T15:14:19.556Z,6.72
2023-02-19T15:16:46.407Z,7.10
2023-02-19T15:19:13.190Z,12.65
2023-02-19T15:21:43.441Z,7.38
2023-02-19T15:24:11.216Z,11.32
2023-02-19T15:26:42.530Z,12.63
2023-02-19T15:29:19.654Z,6.90
2023-02-19T15:31:54.242Z,11.18
2023-02-19T15:34:25.882Z,7.75
2023-02-19T15:37:04.145Z,7.53
2023-02-19T15:39:39.366Z,7.60
2023-02-19T15:42:06.902Z,7.25
2023-02-19T15:44:36.844Z,5.82
2023-02-19T15:47:23.816Z,5.60
2023-02-19T15:50:09.470Z,7.60
2023-02-19T15:52:49.720Z,20.35
2023-02-19T15:55:19.276Z,15.25
2023-02-19T15:57:50.002Z,11.40
2023-02-19T16:00:23.121Z,12.32
2023-02-19T16:02:50.091Z,13.00
2023-02-19T16:05:24.907Z,10.85
2023-02-19T16:08:18.069Z,15.77
2023-02-19T16:10:58.585Z,12.63
2023-02-19T16:13:30.637Z,17.10
2023-02-19T16:15:58.751Z,15.35
2023-02-19T16:18:25.534Z,12.30
2023-02-19T16:20:52.401Z,15.45
2023-02-19T16:23:22.026Z,12.50
2023-02-19T16:25:48.829Z,11.20
2023-02-19T16:28:22.091Z,11.32
2023-02-19T16:31:02.306Z,9.90
2023-02-19T16:33:42.885Z,11.95
2023-02-19T16:36:37.193Z,11.23
2023-02-19T16:39:07.121Z,10.55
2023-02-19T16:41:40.104Z,10.33
2023-02-19T16:44:25.045Z,13.15
2023-02-19T16:46:55.861Z,11.25
2023-02-19T16:49:23.097Z,10.52
2023-02-19T16:51:49.948Z,8.77
2023-02-19T16:54:16.795Z,9.52
2023-02-19T16:56:43.633Z,8.43
2023-02-19T16:59:10.543Z,8.65
2023-02-19T17:01:37.350Z,8.40
2023-02-19T17:04:08.527Z,7.95
2023-02-19T17:06:37.747Z,14.23
2023-02-19T17:09:05.469Z,10.35
2023-02-19T17:11:32.331Z,8.30
2023-02-19T17:13:59.201Z,10.65
2023-02-19T17:16:28.012Z,9.52
2023-02-19T17:18:55.238Z,8.68
2023-02-19T17:21:24.279Z,8.15
2023-02-19T17:23:51.476Z,7.47
2023-02-19T17:26:26.016Z,7.70
2023-02-19T17:28:52.809Z,7.80
2023-02-19T17:31:19.798Z,7.32
2023-02-19T17:33:47.087Z,8.05
2023-02-19T17:36:18.462Z,10.00
2023-02-19T17:38:45.474Z,8.18
2023-02-19T17:41:12.502Z,8.38
2023-02-19T17:43:39.465Z,12.48
2023-02-19T17:46:06.306Z,7.50
2023-02-19T17:48:33.197Z,8.38
2023-02-19T17:50:59.988Z,10.65
2023-02-19T17:53:26.783Z,7.75
2023-02-19T17:55:53.566Z,10.38
2023-02-19T17:58:20.334Z,17.90
2023-02-19T18:00:47.433Z,12.55
2023-02-19T18:03:14.396Z,20.15
2023-02-19T18:05:41.218Z,14.50
2023-02-19T18:08:08.003Z,15.10
2023-02-19T18:10:36.017Z,13.30
2023-02-19T18:13:03.001Z,15.23
2023-02-19T18:15:29.935Z,11.70
2023-02-19T18:17:57.137Z,12.60
2023-02-19T18:20:26.432Z,10.00
2023-02-19T18:22:53.723Z,9.68
2023-02-19T18:25:20.912Z,8.85
2023-02-19T18:27:47.824Z,12.38
2023-02-19T18:30:19.024Z,13.23
2023-02-19T18:32:48.139Z,9.43
2023-02-19T18:35:15.756Z,11.40
2023-02-19T18:37:42.551Z,11.05
2023-02-19T18:40:09.887Z,11.95
2023-02-19T18:42:36.790Z,13.43
2023-02-19T18:45:03.929Z,11.88
2023-02-19T18:47:30.718Z,14.88
2023-02-19T18:49:58.053Z,12.02
2023-02-19T18:52:25.254Z,11.15
2023-02-19T18:54:52.788Z,9.95
2023-02-19T18:57:20.528Z,12.32
2023-02-19T18:59:47.515Z,12.70
2023-02-19T19:02:15.056Z,16.05
2023-02-19T19:04:43.191Z,17.35
2023-02-19T19:07:10.267Z,9.88
2023-02-19T19:09:37.406Z,9.07
2023-02-19T19:12:04.708Z,8.25
2023-02-19T19:14:31.586Z,12.65
2023-02-19T19:16:58.477Z,8.90
2023-02-19T19:19:25.237Z,11.93
2023-02-19T19:21:53.457Z,42.95
2023-02-19T19:24:20.992Z,32.97
2023-02-19T19:26:48.264Z,48.22
2023-02-19T19:29:16.158Z,42.05
2023-02-19T19:31:43.199Z,26.98
2023-02-19T19:34:11.031Z,26.85
2023-02-19T19:36:37.821Z,59.05
2023-02-19T19:39:04.736Z,33.92
2023-02-19T19:41:31.713Z,37.03
2023-02-19T19:43:58.538Z,22.77
2023-02-19T19:46:25.393Z,24.58
2023-02-19T19:48:53.048Z,16.00
2023-02-19T19:51:19.895Z,21.35
2023-02-19T19:53:47.748Z,18.48
2023-02-19T19:56:14.878Z,19.48
2023-02-19T19:58:41.676Z,15.95
2023-02-19T20:01:08.453Z,15.88
2023-02-19T20:03:37.365Z,17.13
2023-02-19T20:06:04.397Z,17.63
2023-02-19T20:08:31.316Z,20.85
2023-02-19T20:10:58.151Z,24.95
2023-02-19T20:13:26.485Z,22.98
2023-02-19T20:15:53.454Z,20.98
2023-02-19T20:18:21.553Z,22.38
2023-02-19T20:20:48.450Z,27.60
2023-02-19T20:23:15.310Z,30.30
2023-02-19T20:25:42.121Z,33.55
2023-02-19T20:28:08.986Z,38.30
2023-02-19T20:30:37.303Z,40.38
2023-02-19T20:33:04.657Z,45.17
2023-02-19T20:35:31.890Z,46.03
2023-02-19T20:37:58.804Z,50.55
2023-02-19T20:40:27.780Z,52.25
2023-02-19T20:42:54.643Z,55.45
2023-02-19T20:45:22.011Z,55.25
2023-02-19T20:47:48.779Z,48.17
2023-02-19T20:50:19.165Z,53.88
2023-02-19T20:52:46.530Z,43.47
2023-02-19T20:55:13.383Z,32.83
2023-02-19T20:57:40.251Z,30.63
2023-02-19T21:00:08.452Z,23.13
2023-02-19T21:02:35.397Z,19.60
2023-02-19T21:05:02.283Z,16.38
2023-02-19T21:07:31.987Z,16.13
2023-02-19T21:09:58.794Z,14.57
2023-02-19T21:12:25.664Z,19.77
2023-02-19T21:14:52.515Z,17.70
2023-02-19T21:17:19.320Z,18.08
2023-02-19T21:19:49.854Z,17.77
2023-02-19T21:22:17.105Z,17.00
2023-02-19T21:24:44.690Z,16.77
2023-02-19T21:27:11.530Z,17.23
2023-02-19T21:29:38.386Z,17.83
2023-02-19T21:32:05.589Z,19.88
2023-02-19T21:34:32.401Z,19.83
2023-02-19T21:36:59.894Z,29.38
2023-02-19T21:39:27.571Z,30.77
2023-02-19T21:41:54.381Z,27.38
2023-02-19T21:44:21.743Z,18.48
2023-02-19T21:46:48.694Z,16.13
2023-02-19T21:49:15.602Z,22.10
2023-02-19T21:51:43.603Z,15.20
2023-02-19T21:54:15.129Z,14.05
2023-02-19T21:56:42.061Z,14.15
2023-02-19T21:59:11.994Z,15.93
2023-02-19T22:01:38.979Z,22.55
2023-02-19T22:04:10.220Z,17.63
2023-02-19T22:06:39.247Z,16.50
2023-02-19T22:09:06.787Z,19.75
2023-02-19T22:11:33.708Z,19.60
2023-02-19T22:14:00.531Z,20.70
2023-02-19T22:16:28.787Z,15.63
2023-02-19T22:18:56.995Z,18.35
2023-02-19T22:21:26.535Z,19.70
2023-02-19T22:23:53.693Z,16.70
2023-02-19T22:26:25.333Z,17.00
2023-02-19T22:28:55.314Z,14.65
2023-02-19T22:31:23.113Z,13.70
2023-02-19T22:33:52.568Z,14.25
2023-02-19T22:36:20.360Z,13.75
2023-02-19T22:38:47.356Z,13.75
2023-02-19T22:41:14.701Z,15.52
2023-02-19T22:43:41.518Z,16.98
2023-02-19T22:46:15.480Z,14.45
2023-02-19T22:48:42.577Z,15.05
2023-02-19T22:51:13.018Z,14.18
2023-02-19T22:53:44.813Z,15.75
2023-02-19T22:56:12.387Z,14.23
2023-02-19T22:58:39.761Z,15.20
2023-02-19T23:01:06.737Z,14.80
2023-02-19T23:03:33.619Z,15.88
2023-02-19T23:06:03.958Z,15.00
2023-02-19T23:08:30.783Z,15.07
2023-02-19T23:10:57.632Z,16.08
2023-02-19T23:13:24.430Z,16.42
2023-02-19T23:15:51.223Z,20.48
2023-02-19T23:18:18.014Z,22.92
2023-02-19T23:20:44.792Z,24.40
2023-02-19T23:23:11.602Z,27.50
2023-02-19T23:25:38.368Z,25.50
2023-02-19T23:28:05.193Z,28.85
2023-02-19T23:30:32.128Z,22.38
2023-02-19T23:32:58.958Z,21.58
2023-02-19T23:35:25.790Z,16.52
2023-02-19T23:37:52.659Z,12.15
2023-02-19T23:40:19.525Z,15.85
2023-02-19T23:42:46.312Z,22.85
2023-02-19T23:45:15.970Z,23.05
2023-02-19T23:47:42.749Z,14.85
2023-02-19T23:50:09.884Z,14.80
2023-02-19T23:52:36.666Z,16.75
2023-02-19T23:55:03.434Z,20.30
2023-02-19T23:57:30.295Z,18.38
2023-02-19T23:59:57.114Z,16.67
